createdAt,value
2023-12-26T00:07:02.263Z,9.10
2023-12-26T00:17:30.063Z,7.90
2023-12-26T00:27:57.909Z,8.80
2023-12-26T00:38:25.838Z,8.90
2023-12-26T00:48:53.924Z,8.00
2023-12-26T00:59:21.914Z,7.80
2023-12-26T01:09:49.821Z,10.00
2023-12-26T01:20:17.845Z,6.60
2023-12-26T01:30:45.810Z,7.40
2023-12-26T01:41:13.710Z,6.10
2023-12-26T01:51:43.870Z,6.40
2023-12-26T02:02:12.083Z,6.40
2023-12-26T02:12:39.945Z,5.80
2023-12-26T02:23:07.977Z,7.00
2023-12-26T02:33:36.756Z,5.20
2023-12-26T02:44:04.536Z,5.40
2023-12-26T02:54:31.890Z,5.80
2023-12-26T03:04:59.213Z,5.70
2023-12-26T03:15:26.526Z,5.80
2023-12-26T03:25:54.051Z,4.40
2023-12-26T03:36:21.651Z,3.30
2023-12-26T03:46:49.472Z,4.30
2023-12-26T03:57:17.324Z,3.90
2023-12-26T04:07:45.169Z,5.40
2023-12-26T04:18:12.988Z,3.60
2023-12-26T04:28:40.911Z,3.20
2023-12-26T04:39:08.858Z,3.60
2023-12-26T04:49:36.726Z,3.80
2023-12-26T05:00:04.824Z,4.40
2023-12-26T05:10:35.167Z,3.80
2023-12-26T05:21:03.450Z,4.20
2023-12-26T05:31:31.280Z,3.10
2023-12-26T05:41:59.137Z,3.50
2023-12-26T05:52:27.204Z,3.10
2023-12-26T06:02:55.307Z,3.00
2023-12-26T06:13:23.545Z,3.20
2023-12-26T06:23:51.437Z,3.50
2023-12-26T06:34:19.628Z,2.70
2023-12-26T06:44:47.561Z,2.60
2023-12-26T06:55:16.828Z,4.10
2023-12-26T07:05:45.949Z,2.10
2023-12-26T07:16:13.921Z,2.50
2023-12-26T07:26:41.795Z,3.20
2023-12-26T07:37:09.610Z,1.70
2023-12-26T07:47:37.464Z,3.30
2023-12-26T07:58:06.493Z,1.60
2023-12-26T08:08:34.238Z,1.70
2023-12-26T08:19:03.538Z,1.10
2023-12-26T08:29:31.052Z,1.80
2023-12-26T08:39:58.808Z,2.50
2023-12-26T08:50:26.241Z,2.10
2023-12-26T09:00:54.389Z,1.60
2023-12-26T09:11:22.265Z,2.00
2023-12-26T09:21:50.020Z,16.70
2023-12-26T09:32:17.911Z,8.60
2023-12-26T09:42:45.735Z,7.40
2023-12-26T09:53:17.552Z,7.10
2023-12-26T10:03:47.290Z,8.90
2023-12-26T10:14:28.995Z,9.20
2023-12-26T10:24:56.736Z,17.60
2023-12-26T10:35:25.836Z,9.30
2023-12-26T10:45:57.125Z,8.90
2023-12-26T10:56:27.015Z,6.90
2023-12-26T11:06:55.069Z,15.40
2023-12-26T11:17:23.151Z,11.60
2023-12-26T11:27:51.091Z,11.50
2023-12-26T11:38:20.632Z,8.80
2023-12-26T11:48:49.776Z,9.90
2023-12-26T11:59:18.248Z,7.50
2023-12-26T12:09:46.110Z,8.50
2023-12-26T12:20:20.822Z,7.90
2023-12-26T12:31:15.950Z,6.20
2023-12-26T12:41:43.972Z,8.40
2023-12-26T12:52:12.703Z,7.40
2023-12-26T13:02:40.892Z,5.90
2023-12-26T13:13:08.928Z,6.40
2023-12-26T13:23:36.721Z,4.00
2023-12-26T13:34:04.738Z,4.60
2023-12-26T13:44:32.810Z,3.50
2023-12-26T13:55:00.618Z,3.00
2023-12-26T14:05:28.552Z,3.30
2023-12-26T14:15:56.365Z,5.10
2023-12-26T14:26:24.206Z,3.20
2023-12-26T14:36:51.971Z,3.00
2023-12-26T14:47:19.816Z,2.90
2023-12-26T14:57:47.550Z,4.60
2023-12-26T15:08:15.390Z,21.90
2023-12-26T15:18:43.263Z,9.00
2023-12-26T15:29:11.077Z,7.50
2023-12-26T15:39:39.255Z,5.70
2023-12-26T15:50:08.905Z,4.70
2023-12-26T16:00:38.429Z,6.20
2023-12-26T16:11:11.004Z,5.20
2023-12-26T16:21:38.976Z,7.00
2023-12-26T16:32:07.463Z,6.70
2023-12-26T16:42:35.423Z,17.70
2023-12-26T16:53:03.423Z,11.20
2023-12-26T17:03:31.382Z,7.20
2023-12-26T17:13:59.805Z,8.10
2023-12-26T17:24:27.697Z,7.30
2023-12-26T17:34:55.492Z,6.90
2023-12-26T17:45:23.808Z,11.00
2023-12-26T17:55:52.245Z,13.80
2023-12-26T18:06:20.031Z,13.80
2023-12-26T18:16:47.942Z,13.10
2023-12-26T18:27:15.745Z,10.30
2023-12-26T18:37:43.543Z,11.60
2023-12-26T18:48:11.773Z,10.60
2023-12-26T18:58:39.978Z,10.30
2023-12-26T19:09:12.114Z,10.90
2023-12-26T19:19:40.415Z,11.50
2023-12-26T19:30:10.990Z,12.20
2023-12-26T19:40:38.525Z,9.60
2023-12-26T19:51:06.755Z,10.20
2023-12-26T20:01:34.761Z,9.40
2023-12-26T20:12:02.839Z,8.70
2023-12-26T20:22:30.847Z,9.50
2023-12-26T20:32:58.777Z,11.10
2023-12-26T20:43:26.870Z,9.60
2023-12-26T20:53:54.718Z,9.50
2023-12-26T21:04:22.517Z,7.60
2023-12-26T21:14:51.830Z,8.70
2023-12-26T21:25:19.950Z,6.20
2023-12-26T21:35:47.742Z,7.20
2023-12-26T21:46:16.441Z,8.30
2023-12-26T21:56:47.071Z,6.40
2023-12-26T22:07:15.330Z,4.80
2023-12-26T22:17:43.288Z,5.60
2023-12-26T22:28:11.138Z,5.50
2023-12-26T22:38:39.151Z,5.50
2023-12-26T22:49:07.250Z,7.00
2023-12-26T22:59:35.074Z,6.60
2023-12-26T23:10:02.810Z,8.50
2023-12-26T23:20:30.654Z,3.70
2023-12-26T23:30:58.577Z,5.30
2023-12-26T23:41:26.464Z,5.10
2023-12-26T23:51:55.016Z,5.10
